Accueil
Images satellite Prévisions 15 joursClimatMétéo marine Cyclones Foudre AéroportsFAQ Actualités A propos
Météo : Europe Afrique Amérique du Nord Amérique du Sud Asie Australie-Océanie Autres
Langues Contact

Asunción, Paraguay

Aeropuerto Internacional Silvio Pettirossi (Luque)

latitude: 25-16S, longitude: 057-38W, altitude: 101 m


METAR: SGAS 260100Z 14002KT CAVOK 11/09 Q1020
short-TAF: périmé (6580 heures)
long-TAF: SGAS 251620Z 2518/2618 12006KT 9999 FEW040 TX16/2518Z TN05/2610Z TEMPO 2603/2606 00000KT 6000 NSC

Heure: 21:04 (01:04 UTC)

Observation

Le bulletin a été fait il y a 4 minutes, à 01:00 UTC  
Vent 02 kt de sud-est
Température 11°C
Humidité 87%
Pression 1020 hPa
Visibilité 10 km ou plus
pas de nuages en-dessous de 1500 mètres et pas de cumulonimbus.

Changer d'unités

Prévision

Le bulletin a été fait il y a 8 heures et 37 minutes, à 16:27 UTC  
Prévision valable du 25 à 18 UTC au 26 à 18 UTC
Vent 06 kt de est/sud-est
Visibilité 10 km ou plus
Quelques nuages à une hauteur de 4000 ft
Temporairement
du 26 à 03 UTC au 26 à 06 UTC
Vent 00 kt de nord
Visibilité 6000 m
Les informations qui figurent sur ce site font l'objet d'une clause de non-responsabilité
Météo : Europe Afrique Amérique du Nord Amérique du Sud Asie Australie-Océanie Autres
Images satellite Prévisions 15 joursClimatMétéo marine Cyclones Foudre AéroportsFAQ Langues Contact Actualités A propos